Time;durP1;ratioP1;P1;durP2;ratioP2;P2;SDS_P1;SDS_P2;PMS_P1;PMS_P2;Temp;Humidity;BMP_temperature;BMP_pressure;BME280_temperature;BME280_humidity;BME280_pressure;Samples;Min_cycle;Max_cycle;Signal;HPM_P1;HPM_P2
2021/12/28 00:00:33;;;;;;;5.63;4.70;;;9.00;99.90;;;;;;5008258;28;20191;-72
2021/12/28 00:03:00;;;;;;;7.37;5.47;;;9.00;99.90;;;;;;4993313;28;20191;-73
2021/12/28 00:05:28;;;;;;;8.07;5.60;;;9.00;99.90;;;;;;4978949;28;20203;-73
2021/12/28 00:07:56;;;;;;;8.30;5.00;;;9.00;99.90;;;;;;4991072;28;20227;-73
2021/12/28 00:10:33;;;;;;;7.70;5.20;;;9.10;99.90;;;;;;5014255;28;20680;-74
2021/12/28 00:13:00;;;;;;;5.63;4.50;;;9.10;99.90;;;;;;4994209;28;20207;-72
2021/12/28 00:15:47;;;;;;;6.20;5.10;;;9.10;99.90;;;;;;5025215;28;20197;-73
2021/12/28 00:18:15;;;;;;;6.13;4.87;;;9.10;99.90;;;;;;5015528;28;20708;-73
2021/12/28 00:20:46;;;;;;;5.37;4.80;;;9.10;99.90;;;;;;5020616;28;20249;-73
2021/12/28 00:23:17;;;;;;;4.73;4.23;;;9.10;99.90;;;;;;5015725;28;20191;-73
2021/12/28 00:25:47;;;;;;;5.80;5.20;;;9.10;99.90;;;;;;4997658;28;20200;-73
2021/12/28 00:28:15;;;;;;;6.13;4.97;;;9.10;99.90;;;;;;5007500;28;20215;-73
2021/12/28 00:30:42;;;;;;;8.47;5.33;;;9.10;99.90;;;;;;4993032;28;20211;-73
2021/12/28 00:33:10;;;;;;;8.37;4.23;;;9.10;99.90;;;;;;5000247;28;20214;-73
2021/12/28 00:35:40;;;;;;;5.13;4.37;;;9.10;99.90;;;;;;5022970;28;20195;-73
2021/12/28 00:38:09;;;;;;;5.00;4.50;;;9.10;99.90;;;;;;4991656;28;20223;-73
2021/12/28 00:40:37;;;;;;;5.27;4.47;;;9.10;99.90;;;;;;5003257;28;20531;-72
2021/12/28 00:43:06;;;;;;;5.13;4.23;;;9.20;99.90;;;;;;4999129;28;20199;-73
2021/12/28 00:45:34;;;;;;;4.57;4.17;;;9.10;99.90;;;;;;5000826;28;20192;-73
2021/12/28 00:48:01;;;;;;;7.63;4.77;;;9.10;99.90;;;;;;5000525;28;20219;-73
2021/12/28 00:50:29;;;;;;;6.10;3.97;;;9.10;99.90;;;;;;5013642;28;20208;-72
2021/12/28 00:52:56;;;;;;;5.80;4.20;;;9.10;99.90;;;;;;5010553;28;20226;-73
2021/12/28 00:55:25;;;;;;;4.73;4.13;;;9.10;99.90;;;;;;5008034;28;20195;-73
2021/12/28 00:57:53;;;;;;;7.47;4.40;;;9.10;99.90;;;;;;5012050;28;20578;-73
2021/12/28 01:00:47;;;;;;;6.73;4.37;;;9.10;99.90;;;;;;4996616;28;20567;-72
2021/12/28 01:03:16;;;;;;;6.03;4.77;;;9.00;99.90;;;;;;4987156;28;20207;-73
2021/12/28 01:05:45;;;;;;;5.97;4.47;;;9.10;99.90;;;;;;5013082;28;20195;-73
2021/12/28 01:08:13;;;;;;;5.70;3.87;;;9.00;99.90;;;;;;5004601;28;20239;-72
2021/12/28 01:10:43;;;;;;;7.10;4.10;;;9.00;99.90;;;;;;5017920;28;20536;-73
2021/12/28 01:13:11;;;;;;;6.43;4.30;;;9.00;99.90;;;;;;4991904;28;20227;-73
2021/12/28 01:15:39;;;;;;;6.73;4.10;;;9.00;99.90;;;;;;4994727;28;20817;-73
2021/12/28 01:18:07;;;;;;;6.43;3.83;;;8.90;99.90;;;;;;4985443;28;20578;-73
2021/12/28 01:20:35;;;;;;;6.80;4.47;;;8.90;99.90;;;;;;5006437;28;20200;-74
2021/12/28 01:23:04;;;;;;;7.73;4.63;;;8.90;99.90;;;;;;4998746;28;20200;-73
2021/12/28 01:25:31;;;;;;;5.77;4.27;;;8.90;99.90;;;;;;4993735;28;20210;-73
2021/12/28 01:27:59;;;;;;;6.07;4.47;;;8.90;99.90;;;;;;4994322;28;20223;-73
2021/12/28 01:30:28;;;;;;;6.03;4.13;;;8.80;99.90;;;;;;5013839;28;20185;-73
2021/12/28 01:32:59;;;;;;;5.93;4.37;;;8.90;99.90;;;;;;5022056;28;20203;-72
2021/12/28 01:35:28;;;;;;;6.47;3.70;;;8.90;99.90;;;;;;5008003;28;20207;-73
2021/12/28 01:37:57;;;;;;;7.57;4.03;;;8.90;99.90;;;;;;4993489;28;20235;-73
2021/12/28 01:40:28;;;;;;;5.90;4.13;;;8.80;99.90;;;;;;4995750;28;20539;-73
2021/12/28 01:42:58;;;;;;;5.97;3.57;;;8.90;99.90;;;;;;5005211;28;20679;-72
2021/12/28 01:45:34;;;;;;;5.63;3.33;;;8.80;99.90;;;;;;4991370;28;20196;-73
2021/12/28 01:48:02;;;;;;;6.27;3.47;;;8.80;99.90;;;;;;5021471;28;20222;-72
2021/12/28 01:50:29;;;;;;;5.90;3.60;;;8.90;99.90;;;;;;4999052;28;20566;-73
2021/12/28 01:52:58;;;;;;;7.27;3.27;;;8.90;99.90;;;;;;5000546;28;20226;-72
2021/12/28 01:55:26;;;;;;;5.30;3.40;;;8.90;99.90;;;;;;4992063;28;20206;-73
2021/12/28 01:57:53;;;;;;;8.20;3.93;;;8.90;99.90;;;;;;5001086;28;20229;-73
2021/12/28 02:00:22;;;;;;;6.40;3.40;;;8.90;99.90;;;;;;5013227;28;20199;-72
2021/12/28 02:02:50;;;;;;;5.87;3.77;;;8.90;99.90;;;;;;5001746;28;20204;-73
2021/12/28 02:05:17;;;;;;;9.40;3.83;;;8.90;99.90;;;;;;4995487;28;20197;-73
2021/12/28 02:07:45;;;;;;;9.37;4.10;;;8.90;99.90;;;;;;5001822;28;20232;-73
2021/12/28 02:10:14;;;;;;;5.27;3.00;;;8.90;99.90;;;;;;4998648;28;20670;-70
2021/12/28 02:12:41;;;;;;;8.00;3.70;;;8.90;99.90;;;;;;4993541;28;20230;-73
2021/12/28 02:15:13;;;;;;;6.73;3.70;;;8.90;99.90;;;;;;5009638;28;20195;-72
2021/12/28 02:17:41;;;;;;;8.87;3.87;;;8.90;99.90;;;;;;5017831;28;20219;-73
2021/12/28 02:20:13;;;;;;;5.80;3.10;;;8.90;99.90;;;;;;4988490;28;20211;-73
2021/12/28 02:22:41;;;;;;;5.77;3.03;;;8.90;99.90;;;;;;5006293;28;20184;-73
2021/12/28 02:25:10;;;;;;;9.63;3.50;;;8.90;99.90;;;;;;5007063;28;20207;-73
2021/12/28 02:27:38;;;;;;;13.00;3.70;;;8.90;99.90;;;;;;5002783;28;20238;-72
2021/12/28 02:30:08;;;;;;;7.40;3.20;;;9.00;99.90;;;;;;4987724;28;20192;-72
2021/12/28 02:32:38;;;;;;;7.43;4.40;;;8.90;99.90;;;;;;5013617;28;20215;-73
2021/12/28 02:35:07;;;;;;;9.27;3.70;;;8.90;99.90;;;;;;4996919;28;20211;-73
2021/12/28 02:37:36;;;;;;;8.90;3.30;;;8.90;99.90;;;;;;5014421;28;20215;-73
2021/12/28 02:40:06;;;;;;;6.83;4.00;;;9.00;99.90;;;;;;4998763;28;20196;-72
2021/12/28 02:42:34;;;;;;;9.30;3.53;;;9.00;99.90;;;;;;5015227;28;20206;-72
2021/12/28 02:45:09;;;;;;;10.87;3.80;;;9.00;99.90;;;;;;5016632;28;20195;-73
2021/12/28 02:47:39;;;;;;;6.57;2.93;;;9.00;99.90;;;;;;4996572;28;20705;-72
2021/12/28 02:50:09;;;;;;;8.73;3.60;;;9.10;99.90;;;;;;5011561;28;20671;-72
2021/12/28 02:52:39;;;;;;;9.47;3.80;;;9.10;99.90;;;;;;5006072;28;20682;-73
2021/12/28 02:55:09;;;;;;;9.10;3.00;;;9.10;99.90;;;;;;5019439;28;20199;-72
2021/12/28 02:57:36;;;;;;;9.53;3.17;;;9.00;99.90;;;;;;5018975;28;20211;-73
2021/12/28 03:00:06;;;;;;;9.43;3.80;;;9.00;99.90;;;;;;4992776;28;20208;-68
2021/12/28 03:02:34;;;;;;;7.53;3.63;;;9.00;99.90;;;;;;5021411;28;20206;-73
2021/12/28 03:05:01;;;;;;;13.47;3.70;;;9.10;99.90;;;;;;5002065;28;20199;-73
2021/12/28 03:07:30;;;;;;;7.57;3.23;;;9.00;99.90;;;;;;4998211;28;20224;-71
2021/12/28 03:09:59;;;;;;;7.37;3.57;;;9.10;99.90;;;;;;4989411;28;20203;-72
2021/12/28 03:12:26;;;;;;;8.87;3.37;;;9.10;99.90;;;;;;5010276;28;20222;-73
2021/12/28 03:14:53;;;;;;;11.33;3.70;;;9.10;99.90;;;;;;5014837;28;20196;-73
2021/12/28 03:17:21;;;;;;;11.37;3.87;;;9.10;99.90;;;;;;4996867;28;20224;-71
2021/12/28 03:19:48;;;;;;;10.93;3.50;;;9.20;99.90;;;;;;4983852;28;20201;-73
2021/12/28 03:22:15;;;;;;;6.90;3.70;;;9.10;99.90;;;;;;5014475;28;20207;-70
2021/12/28 03:24:43;;;;;;;15.33;4.33;;;9.10;99.90;;;;;;4994374;28;20576;-72
2021/12/28 03:27:11;;;;;;;14.80;4.23;;;9.20;99.90;;;;;;5012334;28;20237;-72
2021/12/28 03:29:43;;;;;;;10.40;3.43;;;9.10;99.90;;;;;;5008589;28;20192;-73
2021/12/28 03:32:10;;;;;;;7.23;3.23;;;9.20;99.90;;;;;;5008535;28;20199;-73
2021/12/28 03:34:38;;;;;;;12.60;3.53;;;9.20;99.90;;;;;;4987870;28;20200;-73
2021/12/28 03:37:05;;;;;;;13.63;4.00;;;9.20;99.90;;;;;;5014611;28;20219;-72
2021/12/28 03:39:32;;;;;;;14.73;4.33;;;9.10;99.90;;;;;;4996855;28;20211;-73
2021/12/28 03:42:00;;;;;;;11.03;4.83;;;9.20;99.90;;;;;;4997831;28;20199;-73
2021/12/28 03:44:28;;;;;;;15.57;3.47;;;9.20;99.90;;;;;;4996025;28;20708;-73
2021/12/28 03:46:56;;;;;;;11.97;3.87;;;9.30;99.90;;;;;;4992905;28;20584;-68
2021/12/28 03:49:23;;;;;;;10.97;3.77;;;9.30;99.90;;;;;;4998073;28;20204;-73
2021/12/28 03:51:51;;;;;;;9.17;3.90;;;9.40;99.90;;;;;;4993115;28;20241;-73
2021/12/28 03:54:18;;;;;;;12.10;3.30;;;9.40;99.90;;;;;;4995695;28;20589;-72
2021/12/28 03:56:45;;;;;;;16.10;4.27;;;9.40;99.90;;;;;;5015712;28;20231;-73
2021/12/28 03:59:13;;;;;;;10.87;3.33;;;9.40;99.90;;;;;;4993012;28;20207;-72
2021/12/28 04:01:42;;;;;;;9.07;3.73;;;9.40;99.90;;;;;;5008572;28;20210;-73
2021/12/28 04:04:09;;;;;;;18.57;4.37;;;9.50;99.90;;;;;;5010038;28;20187;-73
2021/12/28 04:06:37;;;;;;;10.40;2.70;;;9.40;99.90;;;;;;5014321;28;20219;-72
2021/12/28 04:09:07;;;;;;;11.40;3.73;;;9.40;99.90;;;;;;5000757;28;20566;-74
2021/12/28 04:11:36;;;;;;;12.13;3.50;;;9.50;99.90;;;;;;5016144;28;20206;-73
2021/12/28 04:14:06;;;;;;;12.10;3.93;;;9.50;99.90;;;;;;5017883;28;20330;-73
2021/12/28 04:16:35;;;;;;;13.10;4.10;;;9.50;99.90;;;;;;5015828;28;20202;-73
2021/12/28 04:19:05;;;;;;;7.63;3.13;;;9.50;99.90;;;;;;4986034;28;20200;-72
2021/12/28 04:21:34;;;;;;;10.13;3.57;;;9.60;99.90;;;;;;5009284;28;20203;-73
2021/12/28 04:24:02;;;;;;;13.60;3.77;;;9.50;99.90;;;;;;4990549;28;20195;-73
2021/12/28 04:26:36;;;;;;;11.67;2.90;;;9.50;99.90;;;;;;5007589;28;20195;-73
2021/12/28 04:29:03;;;;;;;14.53;3.60;;;9.50;99.90;;;;;;4992915;28;20566;-73
2021/12/28 04:31:30;;;;;;;16.13;3.80;;;9.50;99.90;;;;;;4995202;28;20678;-73
2021/12/28 04:33:58;;;;;;;14.90;4.60;;;9.50;99.90;;;;;;5015412;28;20205;-72
2021/12/28 04:36:27;;;;;;;12.40;3.17;;;9.60;99.90;;;;;;4996136;28;20195;-73
2021/12/28 04:38:54;;;;;;;12.20;3.50;;;9.50;99.90;;;;;;4995210;28;20207;-73
2021/12/28 04:41:21;;;;;;;12.50;4.40;;;9.60;99.90;;;;;;5008975;28;20203;-73
2021/12/28 04:43:49;;;;;;;12.37;3.93;;;9.60;99.90;;;;;;5023515;28;20199;-73
2021/12/28 04:46:17;;;;;;;14.53;3.83;;;9.60;99.90;;;;;;4992570;28;20204;-73
2021/12/28 04:48:44;;;;;;;13.30;3.33;;;9.60;99.90;;;;;;5006227;28;20199;-73
2021/12/28 04:51:32;;;;;;;11.53;3.77;;;9.60;99.90;;;;;;4995272;28;20218;-73
2021/12/28 04:54:05;;;;;;;13.23;3.47;;;9.70;99.90;;;;;;4998833;28;20289;-73
2021/12/28 04:56:33;;;;;;;13.60;5.27;;;9.60;99.90;;;;;;4994725;28;20222;-73
2021/12/28 04:59:00;;;;;;;13.87;3.67;;;9.60;99.90;;;;;;5014117;28;20560;-73
2021/12/28 05:01:27;;;;;;;15.03;3.67;;;9.60;99.90;;;;;;5018050;28;20204;-74
2021/12/28 05:03:55;;;;;;;12.53;3.50;;;9.60;99.90;;;;;;4993064;28;20212;-73
2021/12/28 05:06:22;;;;;;;8.10;3.03;;;9.60;99.90;;;;;;4997062;28;20197;-73
2021/12/28 05:08:51;;;;;;;8.47;3.27;;;9.60;99.90;;;;;;4988898;28;20204;-74
2021/12/28 05:11:18;;;;;;;14.10;3.60;;;9.60;99.90;;;;;;5017290;28;20187;-73
2021/12/28 05:13:46;;;;;;;16.07;3.53;;;9.60;99.90;;;;;;5003889;28;20223;-73
2021/12/28 05:16:15;;;;;;;14.33;4.03;;;9.50;99.90;;;;;;5002585;28;20200;-73
2021/12/28 05:18:43;;;;;;;14.33;3.97;;;9.50;99.90;;;;;;5001051;28;20701;-72
2021/12/28 05:21:10;;;;;;;11.87;3.17;;;9.50;99.90;;;;;;5006987;28;20226;-72
2021/12/28 05:23:38;;;;;;;13.93;3.47;;;9.40;99.90;;;;;;4989736;28;20196;-73
2021/12/28 05:26:06;;;;;;;14.23;3.30;;;9.50;99.90;;;;;;4991394;28;20210;-73
2021/12/28 05:28:34;;;;;;;10.80;3.33;;;9.50;99.90;;;;;;5004747;28;20216;-73
2021/12/28 05:31:01;;;;;;;10.87;2.93;;;9.50;99.90;;;;;;4991298;28;20200;-72
2021/12/28 05:33:28;;;;;;;13.63;3.57;;;9.50;99.90;;;;;;5014414;28;20219;-72
2021/12/28 05:35:56;;;;;;;10.53;3.00;;;9.50;99.90;;;;;;4995892;28;20208;-73
2021/12/28 05:38:23;;;;;;;10.80;2.93;;;9.60;99.90;;;;;;4993024;28;20224;-73
2021/12/28 05:40:51;;;;;;;7.80;2.50;;;9.60;99.90;;;;;;4996560;28;20199;-73
2021/12/28 05:43:19;;;;;;;10.97;3.17;;;9.50;99.90;;;;;;5015859;28;20192;-73
2021/12/28 05:45:47;;;;;;;13.87;2.93;;;9.50;99.90;;;;;;5018078;28;20200;-73
2021/12/28 05:48:14;;;;;;;11.40;3.30;;;9.50;99.90;;;;;;5004115;28;20208;-73
2021/12/28 05:50:42;;;;;;;11.47;3.27;;;9.50;99.90;;;;;;5001207;28;20689;-73
2021/12/28 05:53:09;;;;;;;10.93;3.50;;;9.50;99.90;;;;;;4998138;28;20578;-72
2021/12/28 05:55:37;;;;;;;10.03;2.90;;;9.50;99.90;;;;;;4999293;28;20701;-73
2021/12/28 05:58:04;;;;;;;11.30;3.87;;;9.50;99.90;;;;;;4993035;28;20235;-73
2021/12/28 06:00:33;;;;;;;10.73;3.30;;;9.50;99.90;;;;;;4995746;28;20200;-69
2021/12/28 06:03:00;;;;;;;9.57;3.17;;;9.50;99.90;;;;;;4997028;28;20203;-73
2021/12/28 06:05:28;;;;;;;11.50;3.30;;;9.50;99.90;;;;;;5013002;28;20551;-72
2021/12/28 06:07:55;;;;;;;7.47;3.37;;;9.50;99.90;;;;;;4991150;28;20224;-72
2021/12/28 06:10:23;;;;;;;11.60;4.20;;;9.50;99.90;;;;;;5021321;28;20194;-72
2021/12/28 06:12:50;;;;;;;9.43;3.67;;;9.50;99.90;;;;;;4994168;28;20230;-72
2021/12/28 06:15:17;;;;;;;11.60;4.60;;;9.50;99.90;;;;;;5015683;28;20215;-73
2021/12/28 06:17:46;;;;;;;7.10;3.47;;;9.50;99.90;;;;;;4992874;28;20239;-73
2021/12/28 06:20:14;;;;;;;8.83;3.37;;;9.50;99.90;;;;;;5002156;28;20199;-72
2021/12/28 06:22:41;;;;;;;10.80;4.30;;;9.50;99.90;;;;;;4993774;28;20206;-73
2021/12/28 06:25:09;;;;;;;9.40;3.60;;;9.50;99.90;;;;;;5012900;28;20188;-73
2021/12/28 06:27:36;;;;;;;5.27;3.30;;;9.60;99.90;;;;;;5002699;28;20224;-72
2021/12/28 06:30:04;;;;;;;7.50;2.90;;;10.50;99.90;;;;;;4985487;28;20204;-73
2021/12/28 06:32:33;;;;;;;7.37;3.47;;;11.00;99.90;;;;;;5013058;28;20187;-73
2021/12/28 06:35:25;;;;;;;8.70;3.60;;;11.20;99.90;;;;;;4997052;28;20218;-73
2021/12/28 06:37:52;;;;;;;6.47;3.13;;;10.90;99.90;;;;;;4998934;28;20223;-73
2021/12/28 06:40:19;;;;;;;7.80;3.07;;;10.20;99.90;;;;;;4985023;28;20204;-73
2021/12/28 06:42:47;;;;;;;11.20;3.77;;;9.80;99.90;;;;;;4994979;28;20211;-71
2021/12/28 06:45:14;;;;;;;5.90;3.23;;;9.70;99.90;;;;;;5002495;28;20195;-73
2021/12/28 06:47:42;;;;;;;8.93;3.73;;;9.70;99.90;;;;;;5010453;28;20227;-73
2021/12/28 06:50:10;;;;;;;7.60;3.40;;;9.70;99.90;;;;;;5009303;28;20196;-72
2021/12/28 06:53:08;;;;;;;6.40;2.83;;;9.70;99.90;;;;;;4996156;28;20207;-73
2021/12/28 06:55:43;;;;;;;6.33;3.33;;;9.70;99.90;;;;;;4996939;28;20226;-73
2021/12/28 06:58:10;;;;;;;11.03;3.87;;;9.70;99.90;;;;;;5002098;28;20229;-73
2021/12/28 07:00:39;;;;;;;8.57;3.63;;;9.60;99.90;;;;;;4995589;28;20200;-73
2021/12/28 07:03:22;;;;;;;8.53;3.40;;;9.60;99.90;;;;;;5010301;28;20677;-73
2021/12/28 07:05:49;;;;;;;5.30;3.07;;;9.60;99.90;;;;;;4997868;28;20180;-72
2021/12/28 07:08:18;;;;;;;5.83;2.97;;;9.60;99.90;;;;;;4988864;28;20706;-73
2021/12/28 07:11:04;;;;;;;7.60;3.57;;;9.60;99.90;;;;;;4988804;28;20211;-72
2021/12/28 07:13:32;;;;;;;6.70;3.97;;;9.60;99.90;;;;;;5003657;28;20203;-73
2021/12/28 07:15:59;;;;;;;7.67;3.50;;;9.60;99.90;;;;;;5012357;28;20204;-73
2021/12/28 07:18:27;;;;;;;5.70;2.73;;;9.60;99.90;;;;;;5001142;28;20203;-73
2021/12/28 07:20:55;;;;;;;6.00;2.87;;;9.60;99.90;;;;;;5009785;28;20207;-73
2021/12/28 07:23:24;;;;;;;7.10;2.80;;;9.60;99.90;;;;;;4994673;28;20195;-73
2021/12/28 07:25:54;;;;;;;8.20;3.07;;;9.60;99.90;;;;;;4995920;28;20191;-71
2021/12/28 07:28:22;;;;;;;5.73;2.93;;;9.50;99.90;;;;;;5004067;28;20207;-69
2021/12/28 07:30:50;;;;;;;7.87;2.97;;;9.50;99.90;;;;;;4986411;28;20230;-69
2021/12/28 07:33:37;;;;;;;5.80;2.93;;;9.50;99.90;;;;;;5005377;28;20223;-72
2021/12/28 07:36:10;;;;;;;5.77;3.27;;;9.50;99.90;;;;;;4999817;28;20210;-72
2021/12/28 07:38:39;;;;;;;4.80;2.70;;;9.50;99.90;;;;;;4989891;28;20227;-72
2021/12/28 07:41:06;;;;;;;5.93;2.97;;;9.50;99.90;;;;;;4992267;28;20200;-72
2021/12/28 07:43:34;;;;;;;6.40;3.10;;;9.60;99.90;;;;;;4991151;28;20210;-72
2021/12/28 07:46:01;;;;;;;6.40;2.57;;;9.50;99.90;;;;;;5010804;28;20187;-72
2021/12/28 07:48:29;;;;;;;6.77;2.77;;;9.60;99.90;;;;;;5008550;28;20686;-71
2021/12/28 07:50:56;;;;;;;5.03;2.63;;;9.50;99.90;;;;;;5007160;28;20208;-71
2021/12/28 07:53:24;;;;;;;4.30;2.70;;;9.60;99.90;;;;;;4991907;28;20199;-71
2021/12/28 07:55:53;;;;;;;6.83;2.83;;;9.50;99.90;;;;;;5003414;28;20235;-71
2021/12/28 07:58:21;;;;;;;4.87;2.57;;;9.50;99.90;;;;;;4990893;28;20227;-74
2021/12/28 08:00:48;;;;;;;3.10;1.97;;;9.50;99.90;;;;;;4993271;28;20226;-71
2021/12/28 08:03:15;;;;;;;4.93;2.10;;;9.50;99.90;;;;;;4992476;28;20192;-72
2021/12/28 08:06:13;;;;;;;8.03;2.57;;;9.60;99.90;;;;;;4992683;28;20207;-72
2021/12/28 08:08:40;;;;;;;3.57;2.00;;;9.60;99.90;;;;;;5007279;28;20219;-72
2021/12/28 08:11:17;;;;;;;3.83;2.20;;;9.60;99.90;;;;;;4991037;28;20578;-72
2021/12/28 08:13:44;;;;;;;5.37;2.43;;;9.60;99.90;;;;;;4992961;28;20218;-72
2021/12/28 08:16:18;;;;;;;7.37;2.13;;;9.60;99.90;;;;;;4996988;28;20215;-72
2021/12/28 08:18:57;;;;;;;4.53;2.03;;;9.60;99.90;;;;;;5003329;28;20195;-75
2021/12/28 08:21:24;;;;;;;5.33;2.23;;;9.50;99.90;;;;;;5013604;28;20183;-72
2021/12/28 08:23:52;;;;;;;3.70;2.17;;;9.60;99.90;;;;;;5003006;28;20226;-72
2021/12/28 08:26:20;;;;;;;6.80;2.03;;;9.60;99.90;;;;;;4994225;28;20192;-72
2021/12/28 08:28:48;;;;;;;6.17;1.87;;;9.60;99.90;;;;;;5013263;28;20206;-72
2021/12/28 08:31:15;;;;;;;2.00;1.57;;;9.60;99.90;;;;;;4994927;28;20234;-72
2021/12/28 08:33:42;;;;;;;3.87;1.53;;;9.70;99.90;;;;;;5011145;28;20203;-73
2021/12/28 08:36:09;;;;;;;3.43;1.67;;;9.60;99.90;;;;;;5009500;28;20208;-72
2021/12/28 08:38:38;;;;;;;3.90;1.70;;;9.60;99.90;;;;;;5009566;28;20215;-72
2021/12/28 08:41:05;;;;;;;4.40;1.40;;;9.60;99.90;;;;;;5012419;28;20195;-71
2021/12/28 08:47:26;;;;;;;3.63;1.43;;;9.70;99.90;;;;;;4999358;28;20188;-72
2021/12/28 08:49:55;;;;;;;2.60;1.20;;;9.70;99.90;;;;;;4998120;28;20207;-72
2021/12/28 08:52:23;;;;;;;3.90;1.50;;;9.80;99.90;;;;;;4998467;28;20199;-72
2021/12/28 08:54:50;;;;;;;2.57;1.90;;;9.70;99.90;;;;;;5009308;28;20195;-72
2021/12/28 08:57:18;;;;;;;3.80;1.57;;;9.70;99.90;;;;;;5015193;28;20215;-72
2021/12/28 08:59:46;;;;;;;2.53;1.80;;;9.70;99.90;;;;;;4995425;28;20206;-72
2021/12/28 09:02:14;;;;;;;3.50;1.37;;;9.70;99.90;;;;;;4995117;28;20195;-72
2021/12/28 09:04:46;;;;;;;4.57;1.77;;;9.70;99.90;;;;;;5021017;28;20204;-72
2021/12/28 09:07:13;;;;;;;1.47;1.13;;;9.80;99.90;;;;;;5004191;28;20222;-74
2021/12/28 09:09:41;;;;;;;2.30;1.50;;;9.80;99.90;;;;;;5002542;28;20655;-72
2021/12/28 09:12:10;;;;;;;3.83;1.13;;;9.80;99.90;;;;;;5012367;28;20199;-73
2021/12/28 09:14:39;;;;;;;2.33;1.57;;;9.90;99.90;;;;;;5031698;28;20195;-72
2021/12/28 09:17:07;;;;;;;3.63;1.20;;;9.90;99.90;;;;;;5004847;28;20221;-75
2021/12/28 09:19:34;;;;;;;2.57;1.50;;;9.90;99.90;;;;;;4994025;28;20215;-72
2021/12/28 09:22:04;;;;;;;4.20;1.30;;;9.90;99.90;;;;;;5012318;28;20537;-71
2021/12/28 09:24:31;;;;;;;3.80;1.53;;;9.90;99.90;;;;;;5012528;28;20207;-72
2021/12/28 09:26:58;;;;;;;2.53;1.60;;;10.00;99.90;;;;;;5013673;28;20574;-74
2021/12/28 09:29:29;;;;;;;2.50;1.07;;;10.00;99.90;;;;;;4979759;28;20200;-72
2021/12/28 09:31:57;;;;;;;2.40;1.40;;;10.00;99.90;;;;;;4997092;28;20201;-72
2021/12/28 09:34:25;;;;;;;4.17;1.50;;;10.00;99.90;;;;;;4979145;28;20262;-72
2021/12/28 09:36:53;;;;;;;2.20;1.30;;;10.00;99.90;;;;;;4997740;28;20315;-72
2021/12/28 09:39:26;;;;;;;3.33;1.10;;;10.10;99.90;;;;;;4992443;28;20208;-72
2021/12/28 09:41:55;;;;;;;4.10;1.10;;;10.10;99.90;;;;;;4997906;28;20200;-71
2021/12/28 09:44:23;;;;;;;2.30;1.20;;;10.10;99.90;;;;;;4993639;28;20206;-71
2021/12/28 09:46:50;;;;;;;2.63;1.17;;;10.10;99.90;;;;;;5015254;28;20212;-72
2021/12/28 09:49:18;;;;;;;1.40;1.00;;;10.20;99.90;;;;;;4995318;28;20208;-71
2021/12/28 09:51:45;;;;;;;1.67;1.10;;;10.30;99.90;;;;;;5014832;28;20200;-72
2021/12/28 09:54:12;;;;;;;1.60;1.20;;;10.30;99.90;;;;;;5010729;28;20205;-73
2021/12/28 09:56:41;;;;;;;2.50;1.10;;;10.40;99.90;;;;;;5036959;28;20211;-71
2021/12/28 09:59:10;;;;;;;0.87;0.80;;;10.40;99.90;;;;;;5008408;28;20202;-72
2021/12/28 10:01:37;;;;;;;1.47;0.77;;;10.40;99.90;;;;;;5015270;28;20196;-71
2021/12/28 10:04:04;;;;;;;2.77;1.20;;;10.50;99.90;;;;;;4997097;28;20219;-72
2021/12/28 10:06:32;;;;;;;1.90;1.00;;;10.60;99.90;;;;;;5015271;28;20642;-72
2021/12/28 10:09:05;;;;;;;1.97;1.07;;;10.60;99.90;;;;;;4990339;28;20207;-72
2021/12/28 10:11:53;;;;;;;1.63;1.17;;;10.60;99.90;;;;;;5010082;28;20227;-73
2021/12/28 10:14:22;;;;;;;3.27;1.20;;;10.60;99.90;;;;;;5014529;28;20677;-72
2021/12/28 10:16:52;;;;;;;1.33;0.90;;;10.50;99.90;;;;;;4996434;28;20220;-72
2021/12/28 10:19:36;;;;;;;2.27;0.87;;;10.50;99.90;;;;;;4979466;28;20223;-72
2021/12/28 10:22:30;;;;;;;4.23;0.80;;;10.50;99.90;;;;;;5003349;28;20183;-72
2021/12/28 10:25:00;;;;;;;3.60;1.10;;;10.50;99.90;;;;;;5017344;28;20184;-72
2021/12/28 10:27:32;;;;;;;1.10;1.00;;;10.50;99.90;;;;;;5001249;28;20235;-72
2021/12/28 10:33:54;;;;;;;1.70;0.90;;;10.40;99.90;;;;;;5031280;28;20177;-73
2021/12/28 10:36:31;;;;;;;1.87;1.00;;;10.30;99.90;;;;;;4979342;28;20696;-75
2021/12/28 10:42:52;;;;;;;2.37;1.60;;;10.30;99.90;;;;;;5020572;28;20167;-75
2021/12/28 10:45:21;;;;;;;1.73;1.00;;;10.30;99.90;;;;;;4994273;28;20561;-75
2021/12/28 10:47:50;;;;;;;2.43;1.03;;;10.20;99.90;;;;;;5008703;28;20215;-75
2021/12/28 10:50:33;;;;;;;1.30;1.20;;;10.10;99.90;;;;;;5008520;28;20674;-74
2021/12/28 10:53:11;;;;;;;1.50;1.20;;;10.10;99.90;;;;;;5017092;28;20557;-75
2021/12/28 10:55:40;;;;;;;1.47;0.90;;;10.10;99.90;;;;;;4992535;28;20199;-75
2021/12/28 10:58:11;;;;;;;1.60;0.90;;;10.10;99.90;;;;;;4988116;28;20232;-75
2021/12/28 11:00:42;;;;;;;0.60;0.60;;;10.10;99.90;;;;;;4990586;28;20196;-75
2021/12/28 11:03:34;;;;;;;1.03;0.93;;;10.10;99.90;;;;;;4991447;28;20690;-75
2021/12/28 11:06:07;;;;;;;1.07;0.70;;;10.10;99.90;;;;;;4990258;28;20195;-75
2021/12/28 11:08:35;;;;;;;1.43;0.80;;;10.10;99.90;;;;;;4993939;28;20215;-75
2021/12/28 11:11:13;;;;;;;0.70;0.70;;;10.00;99.90;;;;;;5013671;28;20200;-75
2021/12/28 11:13:43;;;;;;;0.40;0.40;;;10.10;99.90;;;;;;5005305;28;20290;-73
2021/12/28 11:16:13;;;;;;;1.13;0.83;;;10.10;99.90;;;;;;5018490;28;20179;-75
2021/12/28 11:18:46;;;;;;;0.70;0.40;;;10.10;99.90;;;;;;4987109;28;20232;-74
2021/12/28 11:21:17;;;;;;;1.20;0.80;;;10.20;99.90;;;;;;5010928;28;20203;-75
2021/12/28 11:23:46;;;;;;;0.77;0.60;;;10.20;99.90;;;;;;5006004;28;20188;-74
2021/12/28 11:26:17;;;;;;;2.53;0.80;;;10.20;99.90;;;;;;4992293;28;20203;-75
2021/12/28 11:28:55;;;;;;;1.00;0.70;;;10.30;99.90;;;;;;4988223;28;20220;-75
2021/12/28 11:31:33;;;;;;;1.50;0.67;;;10.30;99.90;;;;;;5008177;28;20203;-74
2021/12/28 11:34:07;;;;;;;0.80;0.67;;;10.30;99.90;;;;;;5030796;28;20190;-75
2021/12/28 11:36:37;;;;;;;2.03;0.80;;;10.30;99.90;;;;;;5014700;28;20223;-75
2021/12/28 11:39:08;;;;;;;2.10;1.17;;;10.30;99.90;;;;;;5012003;28;20199;-75
2021/12/28 11:41:55;;;;;;;1.03;0.90;;;10.30;99.90;;;;;;5002203;28;20565;-74
2021/12/28 11:44:25;;;;;;;2.70;1.30;;;10.30;99.90;;;;;;4990010;28;20198;-74
2021/12/28 11:46:54;;;;;;;2.20;1.00;;;11.50;99.90;;;;;;5001025;28;20597;-75
2021/12/28 11:49:26;;;;;;;2.03;1.13;;;11.90;99.90;;;;;;4988574;28;20235;-75
2021/12/28 11:52:02;;;;;;;1.00;0.90;;;11.80;99.90;;;;;;4994741;28;20207;-76
2021/12/28 11:55:07;;;;;;;0.97;0.97;;;10.70;99.90;;;;;;5011651;28;20184;-75
2021/12/28 11:57:34;;;;;;;1.13;1.00;;;10.60;99.90;;;;;;5012649;28;20238;-74
2021/12/28 12:00:07;;;;;;;1.10;1.00;;;10.40;99.90;;;;;;5014635;28;20550;-75
2021/12/28 12:02:43;;;;;;;1.00;0.90;;;10.30;99.90;;;;;;4991906;28;20199;-75
2021/12/28 12:05:16;;;;;;;1.43;1.07;;;10.30;99.90;;;;;;4997131;28;20207;-75
2021/12/28 12:07:44;;;;;;;1.00;0.90;;;10.30;99.90;;;;;;5006104;28;20220;-75
2021/12/28 12:10:31;;;;;;;1.30;1.00;;;10.30;99.90;;;;;;4989179;28;20199;-75
2021/12/28 12:13:15;;;;;;;1.07;1.00;;;10.30;99.90;;;;;;5000216;28;20226;-75
2021/12/28 12:15:46;;;;;;;0.90;0.90;;;10.40;99.90;;;;;;4988920;28;20203;-75
2021/12/28 12:18:17;;;;;;;1.73;0.93;;;10.40;99.90;;;;;;4989422;28;20744;-75
2021/12/28 12:20:56;;;;;;;1.20;1.10;;;10.40;99.90;;;;;;5000469;28;20192;-75
2021/12/28 12:23:27;;;;;;;1.27;1.00;;;10.40;99.90;;;;;;5012173;28;20196;-75
2021/12/28 12:26:00;;;;;;;1.37;1.23;;;10.40;99.90;;;;;;5011565;28;20578;-74
2021/12/28 12:28:44;;;;;;;1.30;1.20;;;10.40;99.90;;;;;;4992815;28;20702;-75
2021/12/28 12:31:31;;;;;;;1.23;1.07;;;10.40;99.90;;;;;;5001926;28;20203;-75
2021/12/28 12:34:28;;;;;;;2.30;1.37;;;10.40;99.90;;;;;;5006773;28;20191;-75
2021/12/28 12:37:16;;;;;;;1.23;1.13;;;10.30;99.90;;;;;;4994055;28;20583;-75
2021/12/28 12:39:43;;;;;;;2.63;1.30;;;10.30;99.90;;;;;;4984402;28;21000;-75
2021/12/28 12:42:12;;;;;;;1.33;1.10;;;10.20;99.90;;;;;;4994105;28;20234;-74
2021/12/28 12:44:41;;;;;;;1.90;1.30;;;10.20;99.90;;;;;;5007073;28;20200;-75
2021/12/28 12:47:10;;;;;;;2.20;1.30;;;10.20;99.90;;;;;;4987708;28;20226;-72
2021/12/28 12:49:37;;;;;;;1.40;1.30;;;10.20;99.90;;;;;;5008624;28;20192;-75
2021/12/28 12:52:13;;;;;;;2.40;1.10;;;10.10;99.90;;;;;;5010232;28;20198;-75
2021/12/28 12:54:45;;;;;;;1.03;1.03;;;10.10;99.90;;;;;;5018230;28;20210;-75
2021/12/28 12:57:22;;;;;;;1.10;1.00;;;10.10;99.90;;;;;;5011104;28;20573;-75
2021/12/28 13:00:11;;;;;;;1.47;1.20;;;10.10;99.90;;;;;;4984545;28;20195;-75
2021/12/28 13:02:41;;;;;;;3.33;1.53;;;10.20;99.90;;;;;;5016774;28;20203;-75
2021/12/28 13:08:57;;;;;;;6.20;1.83;;;10.30;99.90;;;;;;5013796;28;20529;-75
2021/12/28 13:11:39;;;;;;;6.23;1.57;;;10.30;99.90;;;;;;5009485;28;20199;-75
2021/12/28 13:14:07;;;;;;;5.57;1.97;;;10.40;99.90;;;;;;4994300;28;20670;-76
2021/12/28 13:16:34;;;;;;;9.97;2.27;;;10.40;99.90;;;;;;5004071;28;20224;-75
2021/12/28 13:19:09;;;;;;;5.87;1.70;;;10.40;99.90;;;;;;5007796;28;20589;-74
2021/12/28 13:22:18;;;;;;;10.83;2.83;;;10.40;99.90;;;;;;4986800;28;20195;-75
2021/12/28 13:24:53;;;;;;;9.80;2.60;;;10.40;99.90;;;;;;5010719;28;20194;-75